createdAt,value
2023-06-07T00:02:29.612Z,10.94
2023-06-07T00:04:59.941Z,10.92
2023-06-07T00:07:26.447Z,10.90
2023-06-07T00:09:52.824Z,10.87
2023-06-07T00:12:19.189Z,10.84
2023-06-07T00:14:45.574Z,10.81
2023-06-07T00:17:12.259Z,10.83
2023-06-07T00:19:38.687Z,10.80
2023-06-07T00:22:05.210Z,10.77
2023-06-07T00:24:31.661Z,10.74
2023-06-07T00:26:58.160Z,10.73
2023-06-07T00:29:24.620Z,10.70
2023-06-07T00:31:51.157Z,10.65
2023-06-07T00:34:17.694Z,10.63
2023-06-07T00:36:44.052Z,10.58
2023-06-07T00:39:10.519Z,10.55
2023-06-07T00:41:36.890Z,10.51
2023-06-07T00:44:03.431Z,10.50
2023-06-07T00:46:31.700Z,10.49
2023-06-07T00:48:58.964Z,10.46
2023-06-07T00:51:29.080Z,10.44
2023-06-07T00:53:58.318Z,10.40
2023-06-07T00:56:24.936Z,10.42
2023-06-07T00:58:51.325Z,10.38
2023-06-07T01:01:17.665Z,10.35
2023-06-07T01:03:44.750Z,10.33
2023-06-07T01:06:11.564Z,10.29
2023-06-07T01:08:38.205Z,10.28
2023-06-07T01:11:05.927Z,10.25
2023-06-07T01:13:32.961Z,10.25
2023-06-07T01:15:59.956Z,10.22
2023-06-07T01:18:28.088Z,10.22
2023-06-07T01:20:56.689Z,10.13
2023-06-07T01:23:33.514Z,10.11
2023-06-07T01:26:01.523Z,10.09
2023-06-07T01:28:32.511Z,10.05
2023-06-07T01:30:59.843Z,10.01
2023-06-07T01:33:26.362Z,9.94
2023-06-07T01:35:54.946Z,9.90
2023-06-07T01:38:22.627Z,9.85
2023-06-07T01:40:51.707Z,9.81
2023-06-07T01:43:19.318Z,9.78
2023-06-07T01:45:46.890Z,9.79
2023-06-07T01:48:13.531Z,9.74
2023-06-07T01:50:40.008Z,9.72
2023-06-07T01:53:06.782Z,9.68
2023-06-07T01:55:33.661Z,9.68
2023-06-07T01:58:32.378Z,9.67
2023-06-07T02:01:01.938Z,9.65
2023-06-07T02:03:44.914Z,9.59
2023-06-07T02:06:14.759Z,9.59
2023-06-07T02:08:46.259Z,9.58
2023-06-07T02:11:14.708Z,9.58
2023-06-07T02:13:43.158Z,9.56
2023-06-07T02:16:09.664Z,9.55
2023-06-07T02:18:36.067Z,9.53
2023-06-07T02:21:02.469Z,9.53
2023-06-07T02:23:28.958Z,9.52
2023-06-07T02:25:55.579Z,9.49
2023-06-07T02:28:21.931Z,9.49
2023-06-07T02:30:48.364Z,9.50
2023-06-07T02:33:15.298Z,9.44
2023-06-07T02:35:44.666Z,9.43
2023-06-07T02:38:11.114Z,9.44
2023-06-07T02:40:37.512Z,9.43
2023-06-07T02:43:03.973Z,9.44
2023-06-07T02:45:30.409Z,9.41
2023-06-07T02:47:56.910Z,9.42
2023-06-07T02:50:23.338Z,9.46
2023-06-07T02:52:49.828Z,9.46
2023-06-07T02:55:16.199Z,9.47
2023-06-07T02:57:42.799Z,9.46
2023-06-07T03:00:09.957Z,9.46
2023-06-07T03:02:36.510Z,9.44
2023-06-07T03:05:03.120Z,9.47
2023-06-07T03:07:29.569Z,9.44
2023-06-07T03:09:56.072Z,9.42
2023-06-07T03:12:22.476Z,9.43
2023-06-07T03:14:48.905Z,9.43
2023-06-07T03:17:16.796Z,9.40
2023-06-07T03:19:43.271Z,9.39
2023-06-07T03:22:09.738Z,9.39
2023-06-07T03:24:36.377Z,9.44
2023-06-07T03:27:06.242Z,9.45
2023-06-07T03:29:32.929Z,9.45
2023-06-07T03:31:59.707Z,9.46
2023-06-07T03:34:26.140Z,9.49
2023-06-07T03:36:52.551Z,9.50
2023-06-07T03:39:19.023Z,9.52
2023-06-07T03:41:45.638Z,9.51
2023-06-07T03:44:12.737Z,9.51
2023-06-07T03:46:39.595Z,9.55
2023-06-07T03:49:06.254Z,9.61
2023-06-07T03:51:32.681Z,9.67
2023-06-07T03:53:59.189Z,9.71
2023-06-07T03:56:25.874Z,9.71
2023-06-07T03:58:52.724Z,9.71
2023-06-07T04:01:19.164Z,9.73
2023-06-07T04:03:45.980Z,9.77
2023-06-07T04:06:12.621Z,9.78
2023-06-07T04:08:39.020Z,9.83
2023-06-07T04:11:05.838Z,9.84
2023-06-07T04:13:32.433Z,9.88
2023-06-07T04:15:59.273Z,9.91
2023-06-07T04:18:25.656Z,9.97
2023-06-07T04:20:52.072Z,10.02
2023-06-07T04:23:18.668Z,10.09
2023-06-07T04:25:45.275Z,10.11
2023-06-07T04:28:11.700Z,10.14
2023-06-07T04:30:38.096Z,10.16
2023-06-07T04:33:05.737Z,10.22
2023-06-07T04:35:32.354Z,10.27
2023-06-07T04:37:59.080Z,10.35
2023-06-07T04:40:26.185Z,10.47
2023-06-07T04:42:59.290Z,10.57
2023-06-07T04:45:25.625Z,10.67
2023-06-07T04:47:52.148Z,10.68
2023-06-07T04:50:18.595Z,10.80
2023-06-07T04:52:45.074Z,10.87
2023-06-07T04:55:11.451Z,11.01
2023-06-07T04:57:37.859Z,11.01
2023-06-07T05:00:05.043Z,11.06
2023-06-07T05:02:31.693Z,11.16
2023-06-07T05:04:58.155Z,11.21
2023-06-07T05:07:24.621Z,11.31
2023-06-07T05:09:51.070Z,11.48
2023-06-07T05:12:17.462Z,11.53
2023-06-07T05:14:43.834Z,11.71
2023-06-07T05:17:10.245Z,11.62
2023-06-07T05:19:36.611Z,11.73
2023-06-07T05:22:03.021Z,11.72
2023-06-07T05:24:29.404Z,11.84
2023-06-07T05:26:55.773Z,12.05
2023-06-07T05:29:22.146Z,12.17
2023-06-07T05:31:48.515Z,12.30
2023-06-07T05:34:14.893Z,12.31
2023-06-07T05:36:41.312Z,12.34
2023-06-07T05:39:07.711Z,12.42
2023-06-07T05:41:34.184Z,12.47
2023-06-07T05:44:00.584Z,12.60
2023-06-07T05:46:26.989Z,12.54
2023-06-07T05:48:53.406Z,12.46
2023-06-07T05:51:19.790Z,12.53
2023-06-07T05:53:46.252Z,12.47
2023-06-07T05:56:12.606Z,12.51
2023-06-07T05:58:38.944Z,12.54
2023-06-07T06:01:05.322Z,12.66
2023-06-07T06:03:31.902Z,12.69
2023-06-07T06:05:58.341Z,12.80
2023-06-07T06:08:24.785Z,12.77
2023-06-07T06:10:51.236Z,12.80
2023-06-07T06:13:17.595Z,12.64
2023-06-07T06:15:43.968Z,12.55
2023-06-07T06:18:10.357Z,12.48
2023-06-07T06:20:36.752Z,12.55
2023-06-07T06:23:03.336Z,12.64
2023-06-07T06:25:29.696Z,12.84
2023-06-07T06:27:56.086Z,13.13
2023-06-07T06:30:22.538Z,13.73
2023-06-07T06:32:50.496Z,13.97
2023-06-07T06:35:18.254Z,13.99
2023-06-07T06:37:44.635Z,13.91
2023-06-07T06:40:11.343Z,13.92
2023-06-07T06:42:37.761Z,13.89
2023-06-07T06:45:05.351Z,14.04
2023-06-07T06:47:31.741Z,14.18
2023-06-07T06:49:58.142Z,14.28
2023-06-07T06:52:25.453Z,14.38
2023-06-07T06:54:51.814Z,14.52
2023-06-07T06:57:19.212Z,14.83
2023-06-07T06:59:47.572Z,15.06
2023-06-07T07:02:15.906Z,15.20
2023-06-07T07:04:42.504Z,15.53
2023-06-07T07:07:08.917Z,15.73
2023-06-07T07:09:35.311Z,16.00
2023-06-07T07:12:02.073Z,15.99
2023-06-07T07:14:28.450Z,16.15
2023-06-07T07:16:57.218Z,16.37
2023-06-07T07:19:23.615Z,16.41
2023-06-07T07:21:50.044Z,16.44
2023-06-07T07:24:16.570Z,16.17
2023-06-07T07:26:43.040Z,16.01
2023-06-07T07:29:09.545Z,15.83
2023-06-07T07:31:35.981Z,15.78
2023-06-07T07:34:03.780Z,15.67
2023-06-07T07:36:30.603Z,15.61
2023-06-07T07:38:56.986Z,15.61
2023-06-07T07:41:23.494Z,15.95
2023-06-07T07:43:49.887Z,16.15
2023-06-07T07:46:19.512Z,16.40
2023-06-07T07:48:45.928Z,16.63
2023-06-07T07:51:12.318Z,17.10
2023-06-07T07:53:38.710Z,17.80
2023-06-07T07:56:05.069Z,18.49
2023-06-07T07:58:31.440Z,19.11
2023-06-07T08:00:57.841Z,19.60
2023-06-07T08:03:24.351Z,19.80
2023-06-07T08:05:50.886Z,19.47
2023-06-07T08:08:17.512Z,19.71
2023-06-07T08:10:43.960Z,20.00
2023-06-07T08:13:10.313Z,20.36
2023-06-07T08:15:36.637Z,20.59
2023-06-07T08:18:03.047Z,20.34
2023-06-07T08:20:29.480Z,20.28
2023-06-07T08:22:55.882Z,20.48
2023-06-07T08:25:22.248Z,20.98
2023-06-07T08:27:49.442Z,21.04
2023-06-07T08:30:16.054Z,21.17
2023-06-07T08:32:44.210Z,21.34
2023-06-07T08:35:12.055Z,21.43
2023-06-07T08:37:38.762Z,21.40
2023-06-07T08:40:06.034Z,21.23
2023-06-07T08:42:33.963Z,20.99
2023-06-07T08:45:00.878Z,21.18
2023-06-07T08:47:29.463Z,21.41
2023-06-07T08:49:57.544Z,21.84
2023-06-07T08:52:25.258Z,22.09
2023-06-07T08:54:53.675Z,21.93
2023-06-07T08:57:20.308Z,21.90
2023-06-07T08:59:48.030Z,21.90
2023-06-07T09:02:14.470Z,21.86
2023-06-07T09:04:41.640Z,22.04
2023-06-07T09:07:11.331Z,21.65
2023-06-07T09:09:39.955Z,21.69
2023-06-07T09:12:06.596Z,22.26
2023-06-07T09:14:33.247Z,22.43
2023-06-07T09:17:00.726Z,22.23
2023-06-07T09:19:38.842Z,22.30
2023-06-07T09:22:06.891Z,21.88
2023-06-07T09:24:34.461Z,21.27
2023-06-07T09:27:02.983Z,21.00
2023-06-07T09:29:30.253Z,20.67
2023-06-07T09:31:57.553Z,20.59
2023-06-07T09:34:25.603Z,20.86
2023-06-07T09:36:57.362Z,21.06
2023-06-07T09:39:25.142Z,21.28
2023-06-07T09:41:56.201Z,21.62
2023-06-07T09:44:26.693Z,21.78
2023-06-07T09:46:54.241Z,21.67
2023-06-07T09:49:32.525Z,21.62
2023-06-07T09:51:59.220Z,21.69
2023-06-07T09:54:42.343Z,21.75
2023-06-07T09:57:10.789Z,21.75
2023-06-07T09:59:38.971Z,21.92
2023-06-07T10:02:29.734Z,22.15
2023-06-07T10:04:58.347Z,22.43
2023-06-07T10:07:28.474Z,22.58
2023-06-07T10:09:58.642Z,22.73
2023-06-07T10:12:28.639Z,23.13
2023-06-07T10:14:56.021Z,23.28
2023-06-07T10:17:29.229Z,23.39
2023-06-07T10:20:00.592Z,23.53
2023-06-07T10:22:35.608Z,23.67
2023-06-07T10:25:15.571Z,23.99
2023-06-07T10:28:00.507Z,23.89
2023-06-07T10:30:31.236Z,23.92
2023-06-07T10:32:59.297Z,23.69
2023-06-07T10:35:26.002Z,23.95
2023-06-07T10:37:52.439Z,24.23
2023-06-07T10:40:18.921Z,24.24
2023-06-07T10:42:45.989Z,24.17
2023-06-07T10:45:12.795Z,23.91
2023-06-07T10:47:39.205Z,23.98
2023-06-07T10:50:06.256Z,24.07
2023-06-07T10:52:32.982Z,24.04
2023-06-07T10:54:59.471Z,23.80
2023-06-07T10:57:37.137Z,23.72
2023-06-07T11:00:22.067Z,23.75
2023-06-07T11:02:48.512Z,23.73
2023-06-07T11:05:15.351Z,23.74
2023-06-07T11:07:41.956Z,23.93
2023-06-07T11:10:08.790Z,24.05
2023-06-07T11:12:38.409Z,24.00
2023-06-07T11:15:33.910Z,24.12
2023-06-07T11:18:07.514Z,24.38
2023-06-07T11:20:37.605Z,24.59
2023-06-07T11:23:20.331Z,24.40
2023-06-07T11:25:47.017Z,24.48
2023-06-07T11:28:13.788Z,24.58
2023-06-07T11:30:42.383Z,24.32
2023-06-07T11:33:08.892Z,24.20
2023-06-07T11:35:35.450Z,24.04
2023-06-07T11:38:04.729Z,24.06
2023-06-07T11:40:31.114Z,24.26
2023-06-07T11:42:57.700Z,24.53
2023-06-07T11:45:24.160Z,24.65
2023-06-07T11:47:53.554Z,24.93
2023-06-07T11:50:21.307Z,25.17
2023-06-07T11:52:47.897Z,25.23
2023-06-07T11:55:14.316Z,24.83
2023-06-07T11:57:40.813Z,24.85
2023-06-07T12:00:08.462Z,25.14
2023-06-07T12:02:36.674Z,25.11
2023-06-07T12:05:03.364Z,25.20
2023-06-07T12:07:30.468Z,25.40
2023-06-07T12:09:56.907Z,25.45
2023-06-07T12:12:23.263Z,25.23
2023-06-07T12:15:00.311Z,24.96
2023-06-07T12:17:29.007Z,24.84
2023-06-07T12:20:07.068Z,24.41
2023-06-07T12:22:33.818Z,24.27
2023-06-07T12:25:09.918Z,24.08
2023-06-07T12:27:36.795Z,23.98
2023-06-07T12:30:03.832Z,23.89
2023-06-07T12:32:31.627Z,23.81
2023-06-07T12:35:00.382Z,23.65
2023-06-07T12:37:26.821Z,23.60
2023-06-07T12:39:53.207Z,23.52
2023-06-07T12:42:19.626Z,23.36
2023-06-07T12:44:46.001Z,23.46
2023-06-07T12:47:12.438Z,23.84
2023-06-07T12:49:38.891Z,24.09
2023-06-07T12:52:05.488Z,24.23
2023-06-07T12:54:32.025Z,24.36
2023-06-07T12:56:58.391Z,24.40
2023-06-07T12:59:24.787Z,24.59
2023-06-07T13:01:51.230Z,24.67
2023-06-07T13:04:17.597Z,24.59
2023-06-07T13:06:44.001Z,24.45
2023-06-07T13:09:10.820Z,24.59
2023-06-07T13:11:37.974Z,24.53
2023-06-07T13:14:04.533Z,24.45
2023-06-07T13:16:31.572Z,24.52
2023-06-07T13:18:58.928Z,24.69
2023-06-07T13:21:25.343Z,24.74
2023-06-07T13:23:51.732Z,24.61
2023-06-07T13:26:18.423Z,24.56
2023-06-07T13:28:44.935Z,24.42
2023-06-07T13:31:12.446Z,24.49
2023-06-07T13:33:40.853Z,24.57
2023-06-07T13:36:07.812Z,24.49
2023-06-07T13:38:34.974Z,24.60
2023-06-07T13:41:01.734Z,24.66
2023-06-07T13:43:44.337Z,24.88
2023-06-07T13:46:15.301Z,24.82
2023-06-07T13:48:41.983Z,24.98
2023-06-07T13:51:10.144Z,25.31
2023-06-07T13:53:37.061Z,25.32
2023-06-07T13:56:03.774Z,25.31
2023-06-07T13:58:30.183Z,25.23
2023-06-07T14:00:56.571Z,25.23
2023-06-07T14:03:23.145Z,25.25
2023-06-07T14:05:49.585Z,25.26
2023-06-07T14:08:16.021Z,25.15
2023-06-07T14:10:42.447Z,25.05
2023-06-07T14:13:08.874Z,24.98
2023-06-07T14:15:35.317Z,25.00
2023-06-07T14:18:01.688Z,25.18
2023-06-07T14:20:28.097Z,25.13
2023-06-07T14:22:54.480Z,25.02
2023-06-07T14:25:20.825Z,25.13
2023-06-07T14:27:47.288Z,25.31
2023-06-07T14:30:14.096Z,25.25
2023-06-07T14:32:40.495Z,25.15
2023-06-07T14:35:07.307Z,24.86
2023-06-07T14:37:33.869Z,24.92
2023-06-07T14:40:00.237Z,24.97
2023-06-07T14:42:26.693Z,24.90
2023-06-07T14:44:56.887Z,24.76
2023-06-07T14:47:24.013Z,24.55
2023-06-07T14:49:53.665Z,24.55
2023-06-07T14:52:20.454Z,24.66
2023-06-07T14:54:46.885Z,24.52
2023-06-07T14:57:13.452Z,24.58
2023-06-07T14:59:40.162Z,24.61
2023-06-07T15:02:08.190Z,24.39
2023-06-07T15:04:34.600Z,24.37
2023-06-07T15:07:01.016Z,24.38
2023-06-07T15:09:27.458Z,24.45
2023-06-07T15:11:54.025Z,24.42
2023-06-07T15:14:20.429Z,24.42
2023-06-07T15:16:46.836Z,24.42
2023-06-07T15:19:13.281Z,24.40
2023-06-07T15:21:39.619Z,24.54
2023-06-07T15:24:06.243Z,24.52
2023-06-07T15:26:32.628Z,24.40
2023-06-07T15:28:59.513Z,24.25
2023-06-07T15:31:26.252Z,24.35
2023-06-07T15:33:52.682Z,24.23
2023-06-07T15:36:19.104Z,24.18
2023-06-07T15:38:45.487Z,24.02
2023-06-07T15:41:11.943Z,24.09
2023-06-07T15:43:44.812Z,24.19
2023-06-07T15:46:11.286Z,24.31
2023-06-07T15:48:37.683Z,24.32
2023-06-07T15:51:04.183Z,24.08
2023-06-07T15:53:30.504Z,23.98
2023-06-07T15:55:56.872Z,23.93
2023-06-07T15:58:23.296Z,23.82
2023-06-07T16:00:49.905Z,23.85
2023-06-07T16:03:16.576Z,23.82
2023-06-07T16:05:43.181Z,23.72
2023-06-07T16:08:14.066Z,23.63
2023-06-07T16:10:41.311Z,23.67
2023-06-07T16:13:10.039Z,23.54
2023-06-07T16:15:36.422Z,23.62
2023-06-07T16:18:04.410Z,23.58
2023-06-07T16:20:30.872Z,23.58
2023-06-07T16:22:57.261Z,23.50
2023-06-07T16:25:23.643Z,23.38
2023-06-07T16:27:50.025Z,23.32
2023-06-07T16:30:16.480Z,23.29
2023-06-07T16:32:42.877Z,23.13
2023-06-07T16:35:09.431Z,23.00
2023-06-07T16:37:35.769Z,22.95
2023-06-07T16:40:02.126Z,22.85
2023-06-07T16:42:28.535Z,22.79
2023-06-07T16:44:54.905Z,22.63
2023-06-07T16:47:21.374Z,22.58
2023-06-07T16:49:47.778Z,22.53
2023-06-07T16:52:14.613Z,22.51
2023-06-07T16:54:41.210Z,22.48
2023-06-07T16:57:07.623Z,22.51
2023-06-07T16:59:34.012Z,22.44
2023-06-07T17:02:00.456Z,22.40
2023-06-07T17:04:26.902Z,22.38
2023-06-07T17:06:53.248Z,22.28
2023-06-07T17:09:19.617Z,22.24
2023-06-07T17:11:45.957Z,22.22
2023-06-07T17:14:13.582Z,22.14
2023-06-07T17:16:40.239Z,22.09
2023-06-07T17:19:06.636Z,22.11
2023-06-07T17:21:32.989Z,22.05
2023-06-07T17:23:59.443Z,22.05
2023-06-07T17:26:25.822Z,21.92
2023-06-07T17:28:52.196Z,21.80
2023-06-07T17:31:18.642Z,21.78
2023-06-07T17:33:45.044Z,21.58
2023-06-07T17:36:11.479Z,21.50
2023-06-07T17:38:37.960Z,21.45
2023-06-07T17:41:04.348Z,21.24
2023-06-07T17:43:30.697Z,21.23
2023-06-07T17:45:57.107Z,21.09
2023-06-07T17:48:24.845Z,21.11
2023-06-07T17:50:51.235Z,21.08
2023-06-07T17:53:17.705Z,21.06
2023-06-07T17:55:44.991Z,21.02
2023-06-07T17:58:11.948Z,20.91
2023-06-07T18:00:38.396Z,20.79
2023-06-07T18:03:07.669Z,20.71
2023-06-07T18:05:34.140Z,20.61
2023-06-07T18:08:00.540Z,20.45
2023-06-07T18:10:27.111Z,20.31
2023-06-07T18:12:53.515Z,20.22
2023-06-07T18:15:19.945Z,20.09
2023-06-07T18:17:46.339Z,20.03
2023-06-07T18:20:13.328Z,19.95
2023-06-07T18:22:39.765Z,19.90
2023-06-07T18:25:06.630Z,19.77
2023-06-07T18:27:33.158Z,19.67
2023-06-07T18:29:59.576Z,19.63
2023-06-07T18:32:26.072Z,19.60
2023-06-07T18:34:52.468Z,19.51
2023-06-07T18:37:18.874Z,19.44
2023-06-07T18:39:45.287Z,19.38
2023-06-07T18:42:13.726Z,19.28
2023-06-07T18:44:42.389Z,19.17
2023-06-07T18:47:08.985Z,19.12
2023-06-07T18:49:35.517Z,19.02
2023-06-07T18:52:02.018Z,18.95
2023-06-07T18:54:28.408Z,18.87
2023-06-07T18:56:54.823Z,18.81
2023-06-07T18:59:21.240Z,18.80
2023-06-07T19:01:51.913Z,18.70
2023-06-07T19:04:19.522Z,18.64
2023-06-07T19:06:48.639Z,18.57
2023-06-07T19:09:17.484Z,18.38
2023-06-07T19:11:43.906Z,18.31
2023-06-07T19:14:10.369Z,18.26
2023-06-07T19:16:36.808Z,18.14
2023-06-07T19:19:03.288Z,18.10
2023-06-07T19:21:31.886Z,18.02
2023-06-07T19:24:01.516Z,17.92
2023-06-07T19:26:29.671Z,17.87
2023-06-07T19:28:56.151Z,17.75
2023-06-07T19:31:22.541Z,17.73
2023-06-07T19:33:49.726Z,17.65
2023-06-07T19:36:16.146Z,17.53
2023-06-07T19:38:42.578Z,17.39
2023-06-07T19:41:08.984Z,17.30
2023-06-07T19:43:35.387Z,17.20
2023-06-07T19:46:01.844Z,17.10
2023-06-07T19:48:28.418Z,17.05
2023-06-07T19:50:54.785Z,16.97
2023-06-07T19:53:21.155Z,16.79
2023-06-07T19:55:48.006Z,16.68
2023-06-07T19:58:16.115Z,16.61
2023-06-07T20:00:42.775Z,16.58
2023-06-07T20:03:09.516Z,16.47
2023-06-07T20:05:36.076Z,16.40
2023-06-07T20:08:02.504Z,16.27
2023-06-07T20:10:29.035Z,16.21
2023-06-07T20:12:55.426Z,16.14
2023-06-07T20:15:21.835Z,16.04
2023-06-07T20:17:48.283Z,15.99
2023-06-07T20:20:14.687Z,15.91
2023-06-07T20:22:41.177Z,15.85
2023-06-07T20:25:08.018Z,15.77
2023-06-07T20:27:34.372Z,15.71
2023-06-07T20:30:01.033Z,15.65
2023-06-07T20:32:29.111Z,15.60
2023-06-07T20:34:55.552Z,15.50
2023-06-07T20:37:21.984Z,15.48
2023-06-07T20:39:48.443Z,15.47
2023-06-07T20:42:15.041Z,15.39
2023-06-07T20:44:52.628Z,15.36
2023-06-07T20:47:20.018Z,15.35
2023-06-07T20:49:46.680Z,15.39
2023-06-07T20:52:13.133Z,15.37
2023-06-07T20:54:39.541Z,15.31
2023-06-07T20:57:06.497Z,15.30
2023-06-07T20:59:34.431Z,15.28
2023-06-07T21:02:00.929Z,15.28
2023-06-07T21:04:27.509Z,15.17
2023-06-07T21:06:53.973Z,15.12
2023-06-07T21:09:20.341Z,15.06
2023-06-07T21:11:46.934Z,15.06
2023-06-07T21:14:13.348Z,15.00
2023-06-07T21:16:39.831Z,14.90
2023-06-07T21:19:06.284Z,14.85
2023-06-07T21:21:32.747Z,14.78
2023-06-07T21:23:59.187Z,14.76
2023-06-07T21:26:25.581Z,14.71
2023-06-07T21:28:51.964Z,14.64
2023-06-07T21:31:18.417Z,14.58
2023-06-07T21:34:01.432Z,14.49
2023-06-07T21:36:29.170Z,14.38
2023-06-07T21:38:59.287Z,14.36
2023-06-07T21:41:26.289Z,14.33
2023-06-07T21:43:52.695Z,14.23
2023-06-07T21:46:19.300Z,14.14
2023-06-07T21:48:46.034Z,14.06
2023-06-07T21:51:12.954Z,14.03
2023-06-07T21:53:39.351Z,13.96
2023-06-07T21:56:05.861Z,13.89
2023-06-07T21:58:32.336Z,13.82
2023-06-07T22:00:58.817Z,13.75
2023-06-07T22:03:25.281Z,13.67
2023-06-07T22:05:51.753Z,13.63
2023-06-07T22:08:18.369Z,13.59
2023-06-07T22:10:44.864Z,13.55
2023-06-07T22:13:11.330Z,13.51
2023-06-07T22:15:37.734Z,13.42
2023-06-07T22:18:04.234Z,13.38
2023-06-07T22:20:30.855Z,13.33
2023-06-07T22:22:57.556Z,13.30
2023-06-07T22:25:39.415Z,13.27
2023-06-07T22:28:11.820Z,13.20
2023-06-07T22:30:38.225Z,13.16
2023-06-07T22:33:04.713Z,13.09
2023-06-07T22:35:31.258Z,13.09
2023-06-07T22:37:57.612Z,13.03
2023-06-07T22:40:24.036Z,12.97
2023-06-07T22:42:50.403Z,12.92
2023-06-07T22:45:16.843Z,12.84
2023-06-07T22:47:43.222Z,12.80
2023-06-07T22:50:09.933Z,12.82
2023-06-07T22:52:36.335Z,12.82
2023-06-07T22:55:03.816Z,12.76
2023-06-07T22:57:31.106Z,12.73
2023-06-07T22:59:57.564Z,12.68
2023-06-07T23:02:24.010Z,12.58
2023-06-07T23:04:50.503Z,12.58
2023-06-07T23:07:16.907Z,12.50
2023-06-07T23:09:44.239Z,12.43
2023-06-07T23:12:10.856Z,12.40
2023-06-07T23:14:37.396Z,12.33
2023-06-07T23:17:04.052Z,12.33
2023-06-07T23:19:30.424Z,12.25
2023-06-07T23:21:56.810Z,12.26
2023-06-07T23:24:24.700Z,12.27
2023-06-07T23:26:51.135Z,12.24
2023-06-07T23:29:17.693Z,12.20
2023-06-07T23:31:44.123Z,12.15
2023-06-07T23:34:10.572Z,12.10
2023-06-07T23:36:36.978Z,12.06
2023-06-07T23:39:03.452Z,11.96
2023-06-07T23:41:29.826Z,11.91
2023-06-07T23:43:56.211Z,11.90
2023-06-07T23:46:22.642Z,11.87
2023-06-07T23:48:49.063Z,11.82
2023-06-07T23:51:16.687Z,11.77
2023-06-07T23:53:43.040Z,11.75
2023-06-07T23:56:09.461Z,11.73
2023-06-07T23:58:36.064Z,11.68
